sensor_id;sensor_type;location;lat;lon;timestamp;P1;durP1;ratioP1;P2;durP2;ratioP2
83769;SDS011;73763;48.936;9.300;2024-03-02T00:02:24;17.50;;;13.90;;
83769;SDS011;73763;48.936;9.300;2024-03-02T00:04:50;17.58;;;13.82;;
83769;SDS011;73763;48.936;9.300;2024-03-02T00:07:16;15.60;;;12.98;;
83769;SDS011;73763;48.936;9.300;2024-03-02T00:09:42;16.13;;;13.05;;
83769;SDS011;73763;48.936;9.300;2024-03-02T00:12:08;20.00;;;14.13;;
83769;SDS011;73763;48.936;9.300;2024-03-02T00:14:36;22.35;;;15.27;;
83769;SDS011;73763;48.936;9.300;2024-03-02T00:17:02;20.40;;;14.53;;
83769;SDS011;73763;48.936;9.300;2024-03-02T00:19:27;16.15;;;12.88;;
83769;SDS011;73763;48.936;9.300;2024-03-02T00:21:53;15.10;;;12.75;;
83769;SDS011;73763;48.936;9.300;2024-03-02T00:24:31;15.43;;;12.97;;
83769;SDS011;73763;48.936;9.300;2024-03-02T00:26:58;16.77;;;13.43;;
83769;SDS011;73763;48.936;9.300;2024-03-02T00:29:24;18.95;;;14.50;;
83769;SDS011;73763;48.936;9.300;2024-03-02T00:31:50;19.10;;;14.37;;
83769;SDS011;73763;48.936;9.300;2024-03-02T00:34:15;15.73;;;12.38;;
83769;SDS011;73763;48.936;9.300;2024-03-02T00:36:42;17.20;;;13.40;;
83769;SDS011;73763;48.936;9.300;2024-03-02T00:39:08;16.27;;;13.17;;
83769;SDS011;73763;48.936;9.300;2024-03-02T00:41:37;16.75;;;13.88;;
83769;SDS011;73763;48.936;9.300;2024-03-02T00:44:14;16.02;;;13.25;;
83769;SDS011;73763;48.936;9.300;2024-03-02T00:46:41;16.88;;;13.95;;
83769;SDS011;73763;48.936;9.300;2024-03-02T00:51:46;19.27;;;15.25;;
83769;SDS011;73763;48.936;9.300;2024-03-02T00:54:13;20.70;;;15.87;;
83769;SDS011;73763;48.936;9.300;2024-03-02T00:56:39;21.65;;;16.67;;
83769;SDS011;73763;48.936;9.300;2024-03-02T00:59:06;24.23;;;17.05;;
83769;SDS011;73763;48.936;9.300;2024-03-02T01:01:32;24.23;;;17.77;;
83769;SDS011;73763;48.936;9.300;2024-03-02T01:03:57;23.67;;;17.83;;
83769;SDS011;73763;48.936;9.300;2024-03-02T01:06:23;25.20;;;18.75;;
83769;SDS011;73763;48.936;9.300;2024-03-02T01:08:48;24.77;;;19.67;;
83769;SDS011;73763;48.936;9.300;2024-03-02T01:11:14;28.10;;;21.23;;
83769;SDS011;73763;48.936;9.300;2024-03-02T01:13:40;27.03;;;20.17;;
83769;SDS011;73763;48.936;9.300;2024-03-02T01:16:05;26.70;;;18.92;;
83769;SDS011;73763;48.936;9.300;2024-03-02T01:18:31;24.57;;;18.50;;
83769;SDS011;73763;48.936;9.300;2024-03-02T01:20:56;27.87;;;20.03;;
83769;SDS011;73763;48.936;9.300;2024-03-02T01:23:22;26.67;;;20.40;;
83769;SDS011;73763;48.936;9.300;2024-03-02T01:25:48;26.33;;;19.90;;
83769;SDS011;73763;48.936;9.300;2024-03-02T01:28:14;25.10;;;19.50;;
83769;SDS011;73763;48.936;9.300;2024-03-02T01:30:40;24.48;;;18.50;;
83769;SDS011;73763;48.936;9.300;2024-03-02T01:33:06;25.20;;;17.90;;
83769;SDS011;73763;48.936;9.300;2024-03-02T01:35:32;27.73;;;19.37;;
83769;SDS011;73763;48.936;9.300;2024-03-02T01:37:58;25.00;;;19.43;;
83769;SDS011;73763;48.936;9.300;2024-03-02T01:40:23;25.80;;;19.40;;
83769;SDS011;73763;48.936;9.300;2024-03-02T01:42:49;25.58;;;19.60;;
83769;SDS011;73763;48.936;9.300;2024-03-02T01:45:15;29.00;;;21.07;;
83769;SDS011;73763;48.936;9.300;2024-03-02T01:47:40;25.63;;;19.17;;
83769;SDS011;73763;48.936;9.300;2024-03-02T01:50:06;27.27;;;19.90;;
83769;SDS011;73763;48.936;9.300;2024-03-02T01:52:32;27.20;;;20.08;;
83769;SDS011;73763;48.936;9.300;2024-03-02T01:54:58;26.80;;;19.73;;
83769;SDS011;73763;48.936;9.300;2024-03-02T01:57:23;26.25;;;19.30;;
83769;SDS011;73763;48.936;9.300;2024-03-02T01:59:49;26.93;;;19.70;;
83769;SDS011;73763;48.936;9.300;2024-03-02T02:02:14;27.92;;;20.27;;
83769;SDS011;73763;48.936;9.300;2024-03-02T02:04:40;28.93;;;20.70;;
83769;SDS011;73763;48.936;9.300;2024-03-02T02:07:05;29.87;;;20.97;;
83769;SDS011;73763;48.936;9.300;2024-03-02T02:09:31;31.20;;;22.43;;
83769;SDS011;73763;48.936;9.300;2024-03-02T02:11:57;29.57;;;22.43;;
83769;SDS011;73763;48.936;9.300;2024-03-02T02:14:23;30.67;;;22.70;;
83769;SDS011;73763;48.936;9.300;2024-03-02T02:16:49;28.83;;;21.60;;
83769;SDS011;73763;48.936;9.300;2024-03-02T02:19:14;31.17;;;23.57;;
83769;SDS011;73763;48.936;9.300;2024-03-02T02:21:43;31.10;;;22.23;;
83769;SDS011;73763;48.936;9.300;2024-03-02T02:24:08;30.77;;;22.15;;
83769;SDS011;73763;48.936;9.300;2024-03-02T02:26:34;33.30;;;23.17;;
83769;SDS011;73763;48.936;9.300;2024-03-02T02:28:59;34.67;;;22.75;;
83769;SDS011;73763;48.936;9.300;2024-03-02T02:31:25;33.27;;;22.20;;
83769;SDS011;73763;48.936;9.300;2024-03-02T02:33:50;31.00;;;22.25;;
83769;SDS011;73763;48.936;9.300;2024-03-02T02:36:16;30.50;;;20.87;;
83769;SDS011;73763;48.936;9.300;2024-03-02T02:38:42;29.13;;;20.77;;
83769;SDS011;73763;48.936;9.300;2024-03-02T02:41:10;30.30;;;22.08;;
83769;SDS011;73763;48.936;9.300;2024-03-02T02:43:36;28.13;;;20.80;;
83769;SDS011;73763;48.936;9.300;2024-03-02T02:46:01;28.88;;;21.17;;
83769;SDS011;73763;48.936;9.300;2024-03-02T02:48:27;32.40;;;22.40;;
83769;SDS011;73763;48.936;9.300;2024-03-02T02:50:53;34.95;;;23.35;;
83769;SDS011;73763;48.936;9.300;2024-03-02T02:53:18;29.33;;;21.03;;
83769;SDS011;73763;48.936;9.300;2024-03-02T02:55:43;31.27;;;21.33;;
83769;SDS011;73763;48.936;9.300;2024-03-02T02:58:09;28.70;;;20.93;;
83769;SDS011;73763;48.936;9.300;2024-03-02T03:00:35;27.20;;;20.35;;
83769;SDS011;73763;48.936;9.300;2024-03-02T03:03:00;31.33;;;21.87;;
83769;SDS011;73763;48.936;9.300;2024-03-02T03:05:26;30.05;;;21.75;;
83769;SDS011;73763;48.936;9.300;2024-03-02T03:07:51;31.33;;;21.43;;
83769;SDS011;73763;48.936;9.300;2024-03-02T03:10:17;33.13;;;22.70;;
83769;SDS011;73763;48.936;9.300;2024-03-02T03:12:42;32.07;;;21.63;;
83769;SDS011;73763;48.936;9.300;2024-03-02T03:15:08;31.52;;;21.80;;
83769;SDS011;73763;48.936;9.300;2024-03-02T03:17:35;28.80;;;20.75;;
83769;SDS011;73763;48.936;9.300;2024-03-02T03:20:01;32.55;;;21.35;;
83769;SDS011;73763;48.936;9.300;2024-03-02T03:22:27;31.17;;;21.70;;
83769;SDS011;73763;48.936;9.300;2024-03-02T03:24:52;32.80;;;22.40;;
83769;SDS011;73763;48.936;9.300;2024-03-02T03:27:18;30.60;;;21.30;;
83769;SDS011;73763;48.936;9.300;2024-03-02T03:29:44;29.60;;;20.63;;
83769;SDS011;73763;48.936;9.300;2024-03-02T03:32:09;33.80;;;22.50;;
83769;SDS011;73763;48.936;9.300;2024-03-02T03:34:35;32.97;;;22.50;;
83769;SDS011;73763;48.936;9.300;2024-03-02T03:37:01;37.47;;;23.40;;
83769;SDS011;73763;48.936;9.300;2024-03-02T03:39:27;37.28;;;24.20;;
83769;SDS011;73763;48.936;9.300;2024-03-02T03:41:52;33.90;;;22.97;;
83769;SDS011;73763;48.936;9.300;2024-03-02T03:44:18;36.72;;;24.52;;
83769;SDS011;73763;48.936;9.300;2024-03-02T03:46:43;37.07;;;24.77;;
83769;SDS011;73763;48.936;9.300;2024-03-02T03:49:08;34.70;;;24.27;;
83769;SDS011;73763;48.936;9.300;2024-03-02T03:51:34;34.63;;;24.47;;
83769;SDS011;73763;48.936;9.300;2024-03-02T03:53:59;34.42;;;23.73;;
83769;SDS011;73763;48.936;9.300;2024-03-02T03:56:25;35.43;;;23.80;;
83769;SDS011;73763;48.936;9.300;2024-03-02T03:58:50;36.07;;;24.20;;
83769;SDS011;73763;48.936;9.300;2024-03-02T04:01:16;33.83;;;23.37;;
83769;SDS011;73763;48.936;9.300;2024-03-02T04:03:41;38.17;;;24.50;;
83769;SDS011;73763;48.936;9.300;2024-03-02T04:06:07;38.67;;;25.33;;
83769;SDS011;73763;48.936;9.300;2024-03-02T04:08:33;39.97;;;25.13;;
83769;SDS011;73763;48.936;9.300;2024-03-02T04:10:58;37.17;;;24.70;;
83769;SDS011;73763;48.936;9.300;2024-03-02T04:13:24;36.80;;;24.50;;
83769;SDS011;73763;48.936;9.300;2024-03-02T04:15:50;39.42;;;25.55;;
83769;SDS011;73763;48.936;9.300;2024-03-02T04:18:15;42.43;;;26.37;;
83769;SDS011;73763;48.936;9.300;2024-03-02T04:20:41;42.05;;;25.58;;
83769;SDS011;73763;48.936;9.300;2024-03-02T04:23:06;34.17;;;23.60;;
83769;SDS011;73763;48.936;9.300;2024-03-02T04:25:32;36.57;;;23.23;;
83769;SDS011;73763;48.936;9.300;2024-03-02T04:27:57;33.97;;;23.47;;
83769;SDS011;73763;48.936;9.300;2024-03-02T04:30:23;31.43;;;21.80;;
83769;SDS011;73763;48.936;9.300;2024-03-02T04:32:48;31.00;;;21.63;;
83769;SDS011;73763;48.936;9.300;2024-03-02T04:35:14;29.13;;;20.03;;
83769;SDS011;73763;48.936;9.300;2024-03-02T04:37:39;32.25;;;21.70;;
83769;SDS011;73763;48.936;9.300;2024-03-02T04:40:05;33.00;;;21.70;;
83769;SDS011;73763;48.936;9.300;2024-03-02T04:42:31;34.70;;;23.10;;
83769;SDS011;73763;48.936;9.300;2024-03-02T04:44:57;37.03;;;23.30;;
83769;SDS011;73763;48.936;9.300;2024-03-02T04:47:22;31.13;;;21.83;;
83769;SDS011;73763;48.936;9.300;2024-03-02T04:49:48;36.80;;;23.08;;
83769;SDS011;73763;48.936;9.300;2024-03-02T04:52:13;36.57;;;23.73;;
83769;SDS011;73763;48.936;9.300;2024-03-02T04:54:39;34.78;;;22.42;;
83769;SDS011;73763;48.936;9.300;2024-03-02T04:57:04;36.40;;;23.90;;
83769;SDS011;73763;48.936;9.300;2024-03-02T04:59:30;34.67;;;22.73;;
83769;SDS011;73763;48.936;9.300;2024-03-02T05:01:55;33.80;;;22.83;;
83769;SDS011;73763;48.936;9.300;2024-03-02T05:04:21;34.05;;;22.75;;
83769;SDS011;73763;48.936;9.300;2024-03-02T05:06:46;33.77;;;23.17;;
83769;SDS011;73763;48.936;9.300;2024-03-02T05:09:12;31.60;;;22.42;;
83769;SDS011;73763;48.936;9.300;2024-03-02T05:11:37;35.30;;;22.30;;
83769;SDS011;73763;48.936;9.300;2024-03-02T05:14:06;34.70;;;22.35;;
83769;SDS011;73763;48.936;9.300;2024-03-02T05:16:34;34.08;;;22.20;;
83769;SDS011;73763;48.936;9.300;2024-03-02T05:19:00;32.67;;;21.77;;
83769;SDS011;73763;48.936;9.300;2024-03-02T05:21:26;30.33;;;21.13;;
83769;SDS011;73763;48.936;9.300;2024-03-02T05:23:51;31.85;;;21.67;;
83769;SDS011;73763;48.936;9.300;2024-03-02T05:26:17;34.93;;;22.13;;
83769;SDS011;73763;48.936;9.300;2024-03-02T05:28:42;36.30;;;23.05;;
83769;SDS011;73763;48.936;9.300;2024-03-02T05:31:11;34.93;;;22.47;;
83769;SDS011;73763;48.936;9.300;2024-03-02T05:33:39;32.75;;;21.45;;
83769;SDS011;73763;48.936;9.300;2024-03-02T05:36:05;30.37;;;20.67;;
83769;SDS011;73763;48.936;9.300;2024-03-02T05:38:30;32.22;;;21.70;;
83769;SDS011;73763;48.936;9.300;2024-03-02T05:40:56;36.97;;;23.50;;
83769;SDS011;73763;48.936;9.300;2024-03-02T05:43:21;36.70;;;24.08;;
83769;SDS011;73763;48.936;9.300;2024-03-02T05:45:47;38.27;;;24.80;;
83769;SDS011;73763;48.936;9.300;2024-03-02T05:48:12;40.38;;;25.08;;
83769;SDS011;73763;48.936;9.300;2024-03-02T05:50:38;39.83;;;24.60;;
83769;SDS011;73763;48.936;9.300;2024-03-02T05:53:03;32.65;;;22.73;;
83769;SDS011;73763;48.936;9.300;2024-03-02T05:55:29;32.67;;;21.80;;
83769;SDS011;73763;48.936;9.300;2024-03-02T05:57:54;36.38;;;23.05;;
83769;SDS011;73763;48.936;9.300;2024-03-02T06:00:20;37.40;;;23.43;;
83769;SDS011;73763;48.936;9.300;2024-03-02T06:02:45;39.17;;;24.08;;
83769;SDS011;73763;48.936;9.300;2024-03-02T06:05:11;36.43;;;23.67;;
83769;SDS011;73763;48.936;9.300;2024-03-02T06:07:36;34.03;;;23.23;;
83769;SDS011;73763;48.936;9.300;2024-03-02T06:10:02;34.63;;;22.13;;
83769;SDS011;73763;48.936;9.300;2024-03-02T06:12:28;37.58;;;22.02;;
83769;SDS011;73763;48.936;9.300;2024-03-02T06:14:55;31.30;;;21.63;;
83769;SDS011;73763;48.936;9.300;2024-03-02T06:17:21;37.60;;;21.83;;
83769;SDS011;73763;48.936;9.300;2024-03-02T06:19:46;34.05;;;22.15;;
83769;SDS011;73763;48.936;9.300;2024-03-02T06:22:12;34.00;;;22.87;;
83769;SDS011;73763;48.936;9.300;2024-03-02T06:24:37;33.83;;;22.55;;
83769;SDS011;73763;48.936;9.300;2024-03-02T06:27:03;33.73;;;22.20;;
83769;SDS011;73763;48.936;9.300;2024-03-02T06:29:28;34.08;;;23.23;;
83769;SDS011;73763;48.936;9.300;2024-03-02T06:31:54;36.77;;;23.87;;
83769;SDS011;73763;48.936;9.300;2024-03-02T06:34:19;32.20;;;22.52;;
83769;SDS011;73763;48.936;9.300;2024-03-02T06:36:45;34.83;;;22.53;;
83769;SDS011;73763;48.936;9.300;2024-03-02T06:39:10;34.33;;;22.40;;
83769;SDS011;73763;48.936;9.300;2024-03-02T06:41:36;33.50;;;22.60;;
83769;SDS011;73763;48.936;9.300;2024-03-02T06:44:01;31.00;;;21.58;;
83769;SDS011;73763;48.936;9.300;2024-03-02T06:46:27;33.13;;;22.20;;
83769;SDS011;73763;48.936;9.300;2024-03-02T06:48:52;27.33;;;20.33;;
83769;SDS011;73763;48.936;9.300;2024-03-02T06:51:18;26.73;;;20.20;;
83769;SDS011;73763;48.936;9.300;2024-03-02T06:53:43;26.45;;;18.40;;
83769;SDS011;73763;48.936;9.300;2024-03-02T06:56:09;24.80;;;18.33;;
83769;SDS011;73763;48.936;9.300;2024-03-02T06:58:34;24.77;;;18.63;;
83769;SDS011;73763;48.936;9.300;2024-03-02T07:01:00;26.80;;;19.63;;
83769;SDS011;73763;48.936;9.300;2024-03-02T07:03:25;23.25;;;17.85;;
83769;SDS011;73763;48.936;9.300;2024-03-02T07:05:51;26.83;;;18.70;;
83769;SDS011;73763;48.936;9.300;2024-03-02T07:08:17;25.38;;;18.92;;
83769;SDS011;73763;48.936;9.300;2024-03-02T07:10:42;23.87;;;17.63;;
83769;SDS011;73763;48.936;9.300;2024-03-02T07:13:08;22.80;;;17.38;;
83769;SDS011;73763;48.936;9.300;2024-03-02T07:15:33;23.13;;;17.47;;
83769;SDS011;73763;48.936;9.300;2024-03-02T07:17:59;22.88;;;16.90;;
83769;SDS011;73763;48.936;9.300;2024-03-02T07:20:24;21.50;;;16.20;;
83769;SDS011;73763;48.936;9.300;2024-03-02T07:22:49;19.83;;;15.75;;
83769;SDS011;73763;48.936;9.300;2024-03-02T07:25:15;19.63;;;15.90;;
83769;SDS011;73763;48.936;9.300;2024-03-02T07:27:40;20.30;;;15.30;;
83769;SDS011;73763;48.936;9.300;2024-03-02T07:30:07;19.43;;;14.57;;
83769;SDS011;73763;48.936;9.300;2024-03-02T07:32:32;17.77;;;14.18;;
83769;SDS011;73763;48.936;9.300;2024-03-02T07:34:58;18.95;;;13.85;;
83769;SDS011;73763;48.936;9.300;2024-03-02T07:37:23;15.50;;;13.03;;
83769;SDS011;73763;48.936;9.300;2024-03-02T07:39:49;16.15;;;12.65;;
83769;SDS011;73763;48.936;9.300;2024-03-02T07:42:16;15.85;;;13.30;;
83769;SDS011;73763;48.936;9.300;2024-03-02T07:44:41;15.57;;;12.60;;
83769;SDS011;73763;48.936;9.300;2024-03-02T07:47:08;16.75;;;12.73;;
83769;SDS011;73763;48.936;9.300;2024-03-02T07:49:34;17.95;;;12.30;;
83769;SDS011;73763;48.936;9.300;2024-03-02T07:51:59;16.10;;;12.33;;
83769;SDS011;73763;48.936;9.300;2024-03-02T07:54:25;17.15;;;13.02;;
83769;SDS011;73763;48.936;9.300;2024-03-02T07:56:50;15.03;;;12.53;;
83769;SDS011;73763;48.936;9.300;2024-03-02T07:59:16;13.33;;;11.93;;
83769;SDS011;73763;48.936;9.300;2024-03-02T08:01:41;12.32;;;11.02;;
83769;SDS011;73763;48.936;9.300;2024-03-02T08:04:09;16.40;;;13.48;;
83769;SDS011;73763;48.936;9.300;2024-03-02T08:06:35;13.90;;;11.82;;
83769;SDS011;73763;48.936;9.300;2024-03-02T08:09:04;14.82;;;13.00;;
83769;SDS011;73763;48.936;9.300;2024-03-02T08:11:29;15.98;;;12.82;;
83769;SDS011;73763;48.936;9.300;2024-03-02T08:13:55;14.70;;;12.10;;
83769;SDS011;73763;48.936;9.300;2024-03-02T08:16:23;11.57;;;9.47;;
83769;SDS011;73763;48.936;9.300;2024-03-02T08:18:49;9.82;;;7.93;;
83769;SDS011;73763;48.936;9.300;2024-03-02T08:21:15;10.38;;;8.18;;
83769;SDS011;73763;48.936;9.300;2024-03-02T08:23:41;11.25;;;8.75;;
83769;SDS011;73763;48.936;9.300;2024-03-02T08:26:08;10.70;;;8.05;;
83769;SDS011;73763;48.936;9.300;2024-03-02T08:28:34;10.40;;;8.60;;
83769;SDS011;73763;48.936;9.300;2024-03-02T08:31:00;10.98;;;8.15;;
83769;SDS011;73763;48.936;9.300;2024-03-02T08:33:25;11.13;;;9.17;;
83769;SDS011;73763;48.936;9.300;2024-03-02T08:35:51;10.48;;;9.02;;
83769;SDS011;73763;48.936;9.300;2024-03-02T08:38:16;12.73;;;10.93;;
83769;SDS011;73763;48.936;9.300;2024-03-02T08:40:42;16.27;;;11.35;;
83769;SDS011;73763;48.936;9.300;2024-03-02T08:43:08;14.38;;;11.60;;
83769;SDS011;73763;48.936;9.300;2024-03-02T08:45:34;13.93;;;11.60;;
83769;SDS011;73763;48.936;9.300;2024-03-02T08:48:00;13.60;;;11.47;;
83769;SDS011;73763;48.936;9.300;2024-03-02T08:50:25;13.20;;;11.20;;
83769;SDS011;73763;48.936;9.300;2024-03-02T08:52:51;13.63;;;10.97;;
83769;SDS011;73763;48.936;9.300;2024-03-02T08:55:16;12.00;;;9.57;;
83769;SDS011;73763;48.936;9.300;2024-03-02T08:57:42;12.27;;;9.20;;
83769;SDS011;73763;48.936;9.300;2024-03-02T09:00:08;10.67;;;8.57;;
83769;SDS011;73763;48.936;9.300;2024-03-02T09:02:34;10.45;;;8.70;;
83769;SDS011;73763;48.936;9.300;2024-03-02T09:04:59;9.60;;;8.50;;
83769;SDS011;73763;48.936;9.300;2024-03-02T09:07:25;10.27;;;8.00;;
83769;SDS011;73763;48.936;9.300;2024-03-02T09:09:51;8.60;;;7.72;;
83769;SDS011;73763;48.936;9.300;2024-03-02T09:12:16;9.53;;;8.03;;
83769;SDS011;73763;48.936;9.300;2024-03-02T09:14:42;8.30;;;7.50;;
83769;SDS011;73763;48.936;9.300;2024-03-02T09:17:07;11.30;;;7.68;;
83769;SDS011;73763;48.936;9.300;2024-03-02T09:19:33;8.33;;;7.10;;
83769;SDS011;73763;48.936;9.300;2024-03-02T09:21:58;7.53;;;6.60;;
83769;SDS011;73763;48.936;9.300;2024-03-02T09:24:24;7.00;;;6.00;;
83769;SDS011;73763;48.936;9.300;2024-03-02T09:26:49;7.22;;;6.13;;
83769;SDS011;73763;48.936;9.300;2024-03-02T09:29:15;7.77;;;6.50;;
83769;SDS011;73763;48.936;9.300;2024-03-02T09:31:41;6.83;;;6.07;;
83769;SDS011;73763;48.936;9.300;2024-03-02T09:34:07;7.40;;;6.38;;
83769;SDS011;73763;48.936;9.300;2024-03-02T09:36:32;6.75;;;5.75;;
83769;SDS011;73763;48.936;9.300;2024-03-02T09:38:58;6.53;;;5.03;;
83769;SDS011;73763;48.936;9.300;2024-03-02T09:41:24;5.97;;;4.73;;
83769;SDS011;73763;48.936;9.300;2024-03-02T09:43:49;6.13;;;4.68;;
83769;SDS011;73763;48.936;9.300;2024-03-02T09:46:15;5.63;;;5.00;;
83769;SDS011;73763;48.936;9.300;2024-03-02T09:48:41;5.47;;;4.70;;
83769;SDS011;73763;48.936;9.300;2024-03-02T09:51:09;5.07;;;4.57;;
83769;SDS011;73763;48.936;9.300;2024-03-02T09:53:36;4.93;;;4.32;;
83769;SDS011;73763;48.936;9.300;2024-03-02T09:56:02;5.33;;;4.60;;
83769;SDS011;73763;48.936;9.300;2024-03-02T09:58:28;4.65;;;4.00;;
83769;SDS011;73763;48.936;9.300;2024-03-02T10:00:54;4.63;;;4.00;;
83769;SDS011;73763;48.936;9.300;2024-03-02T10:03:20;4.47;;;3.40;;
83769;SDS011;73763;48.936;9.300;2024-03-02T10:05:47;4.07;;;3.00;;
83769;SDS011;73763;48.936;9.300;2024-03-02T10:08:15;4.10;;;3.10;;
83769;SDS011;73763;48.936;9.300;2024-03-02T10:10:41;3.70;;;2.78;;
83769;SDS011;73763;48.936;9.300;2024-03-02T10:13:07;4.37;;;2.50;;
83769;SDS011;73763;48.936;9.300;2024-03-02T10:15:33;4.50;;;2.75;;
83769;SDS011;73763;48.936;9.300;2024-03-02T10:17:59;6.67;;;3.40;;
83769;SDS011;73763;48.936;9.300;2024-03-02T10:20:25;4.05;;;3.20;;
83769;SDS011;73763;48.936;9.300;2024-03-02T10:22:51;3.17;;;2.35;;
83769;SDS011;73763;48.936;9.300;2024-03-02T10:25:29;3.90;;;2.38;;
83769;SDS011;73763;48.936;9.300;2024-03-02T10:27:57;3.27;;;2.60;;
83769;SDS011;73763;48.936;9.300;2024-03-02T10:30:23;2.63;;;2.10;;
83769;SDS011;73763;48.936;9.300;2024-03-02T10:32:49;4.87;;;2.70;;
83769;SDS011;73763;48.936;9.300;2024-03-02T10:35:15;3.08;;;2.67;;
83769;SDS011;73763;48.936;9.300;2024-03-02T10:37:41;2.92;;;2.63;;
83769;SDS011;73763;48.936;9.300;2024-03-02T10:40:07;3.53;;;2.80;;
83769;SDS011;73763;48.936;9.300;2024-03-02T10:42:35;3.60;;;3.10;;
83769;SDS011;73763;48.936;9.300;2024-03-02T10:45:02;2.75;;;2.55;;
83769;SDS011;73763;48.936;9.300;2024-03-02T10:47:29;2.93;;;2.60;;
83769;SDS011;73763;48.936;9.300;2024-03-02T10:49:58;4.10;;;3.10;;
83769;SDS011;73763;48.936;9.300;2024-03-02T10:52:25;3.83;;;3.42;;
83769;SDS011;73763;48.936;9.300;2024-03-02T10:54:51;3.80;;;2.90;;
83769;SDS011;73763;48.936;9.300;2024-03-02T10:57:16;3.70;;;2.90;;
83769;SDS011;73763;48.936;9.300;2024-03-02T10:59:51;3.63;;;2.63;;
83769;SDS011;73763;48.936;9.300;2024-03-02T11:02:18;3.15;;;2.85;;
83769;SDS011;73763;48.936;9.300;2024-03-02T11:04:46;3.33;;;3.03;;
83769;SDS011;73763;48.936;9.300;2024-03-02T11:07:18;2.33;;;2.10;;
83769;SDS011;73763;48.936;9.300;2024-03-02T11:09:59;2.42;;;2.22;;
83769;SDS011;73763;48.936;9.300;2024-03-02T11:14:54;3.08;;;2.60;;
83769;SDS011;73763;48.936;9.300;2024-03-02T11:17:21;3.67;;;3.30;;
83769;SDS011;73763;48.936;9.300;2024-03-02T11:19:47;2.10;;;1.90;;
83769;SDS011;73763;48.936;9.300;2024-03-02T11:22:13;3.70;;;2.28;;
83769;SDS011;73763;48.936;9.300;2024-03-02T11:24:43;4.40;;;2.70;;
83769;SDS011;73763;48.936;9.300;2024-03-02T11:27:58;3.15;;;2.63;;
83769;SDS011;73763;48.936;9.300;2024-03-02T11:32:58;3.00;;;2.40;;
83769;SDS011;73763;48.936;9.300;2024-03-02T11:35:27;2.72;;;2.30;;
83769;SDS011;73763;48.936;9.300;2024-03-02T11:37:53;2.17;;;2.00;;
83769;SDS011;73763;48.936;9.300;2024-03-02T11:40:22;2.38;;;2.10;;
83769;SDS011;73763;48.936;9.300;2024-03-02T11:42:48;3.30;;;2.10;;
83769;SDS011;73763;48.936;9.300;2024-03-02T11:45:16;2.67;;;1.90;;
83769;SDS011;73763;48.936;9.300;2024-03-02T11:47:46;2.78;;;2.00;;
83769;SDS011;73763;48.936;9.300;2024-03-02T11:50:15;2.03;;;1.80;;
83769;SDS011;73763;48.936;9.300;2024-03-02T11:52:53;1.50;;;1.40;;
83769;SDS011;73763;48.936;9.300;2024-03-02T11:55:18;1.97;;;1.67;;
83769;SDS011;73763;48.936;9.300;2024-03-02T11:57:45;2.13;;;1.60;;
83769;SDS011;73763;48.936;9.300;2024-03-02T12:00:18;3.40;;;1.65;;
83769;SDS011;73763;48.936;9.300;2024-03-02T12:02:44;2.00;;;1.80;;
83769;SDS011;73763;48.936;9.300;2024-03-02T12:05:11;2.17;;;1.80;;
83769;SDS011;73763;48.936;9.300;2024-03-02T12:07:36;2.47;;;1.30;;
83769;SDS011;73763;48.936;9.300;2024-03-02T12:10:03;2.20;;;1.25;;
83769;SDS011;73763;48.936;9.300;2024-03-02T12:12:29;1.80;;;1.20;;
83769;SDS011;73763;48.936;9.300;2024-03-02T12:14:54;1.83;;;1.40;;
83769;SDS011;73763;48.936;9.300;2024-03-02T12:17:20;1.60;;;1.35;;
83769;SDS011;73763;48.936;9.300;2024-03-02T12:19:46;1.80;;;1.50;;
83769;SDS011;73763;48.936;9.300;2024-03-02T12:22:12;1.95;;;1.30;;
83769;SDS011;73763;48.936;9.300;2024-03-02T12:24:37;2.35;;;1.30;;
83769;SDS011;73763;48.936;9.300;2024-03-02T12:27:04;2.80;;;1.15;;
83769;SDS011;73763;48.936;9.300;2024-03-02T12:29:32;1.30;;;1.20;;
83769;SDS011;73763;48.936;9.300;2024-03-02T12:31:59;3.17;;;1.30;;
83769;SDS011;73763;48.936;9.300;2024-03-02T12:34:25;1.50;;;1.20;;
83769;SDS011;73763;48.936;9.300;2024-03-02T12:36:51;2.55;;;1.00;;
83769;SDS011;73763;48.936;9.300;2024-03-02T12:39:16;1.57;;;1.00;;
83769;SDS011;73763;48.936;9.300;2024-03-02T12:41:42;1.48;;;0.98;;
83769;SDS011;73763;48.936;9.300;2024-03-02T12:44:08;1.77;;;0.85;;
83769;SDS011;73763;48.936;9.300;2024-03-02T12:46:34;2.53;;;1.00;;
83769;SDS011;73763;48.936;9.300;2024-03-02T12:49:04;1.02;;;0.70;;
83769;SDS011;73763;48.936;9.300;2024-03-02T12:51:36;1.50;;;0.90;;
83769;SDS011;73763;48.936;9.300;2024-03-02T12:54:09;1.00;;;0.88;;
83769;SDS011;73763;48.936;9.300;2024-03-02T12:56:35;1.40;;;0.90;;
83769;SDS011;73763;48.936;9.300;2024-03-02T12:59:05;2.17;;;1.08;;
83769;SDS011;73763;48.936;9.300;2024-03-02T13:01:31;2.90;;;1.10;;
83769;SDS011;73763;48.936;9.300;2024-03-02T13:03:57;1.17;;;1.07;;
83769;SDS011;73763;48.936;9.300;2024-03-02T13:06:24;1.00;;;0.90;;
83769;SDS011;73763;48.936;9.300;2024-03-02T13:08:50;1.27;;;1.10;;
83769;SDS011;73763;48.936;9.300;2024-03-02T13:11:16;2.13;;;1.07;;
83769;SDS011;73763;48.936;9.300;2024-03-02T13:13:42;1.48;;;1.20;;
83769;SDS011;73763;48.936;9.300;2024-03-02T13:16:10;1.77;;;1.35;;
83769;SDS011;73763;48.936;9.300;2024-03-02T13:18:38;2.10;;;1.65;;
83769;SDS011;73763;48.936;9.300;2024-03-02T13:21:05;1.60;;;1.40;;
83769;SDS011;73763;48.936;9.300;2024-03-02T13:23:30;1.50;;;1.30;;
83769;SDS011;73763;48.936;9.300;2024-03-02T13:25:56;1.75;;;1.30;;
83769;SDS011;73763;48.936;9.300;2024-03-02T13:28:22;1.80;;;1.00;;
83769;SDS011;73763;48.936;9.300;2024-03-02T13:30:48;1.67;;;1.10;;
83769;SDS011;73763;48.936;9.300;2024-03-02T13:33:13;1.20;;;1.10;;
83769;SDS011;73763;48.936;9.300;2024-03-02T13:35:39;1.10;;;1.00;;
83769;SDS011;73763;48.936;9.300;2024-03-02T13:38:04;2.60;;;1.10;;
83769;SDS011;73763;48.936;9.300;2024-03-02T13:40:30;1.13;;;1.03;;
83769;SDS011;73763;48.936;9.300;2024-03-02T13:42:55;1.70;;;1.00;;
83769;SDS011;73763;48.936;9.300;2024-03-02T13:45:21;1.67;;;0.90;;
83769;SDS011;73763;48.936;9.300;2024-03-02T13:47:46;1.90;;;1.00;;
83769;SDS011;73763;48.936;9.300;2024-03-02T13:50:12;0.90;;;0.90;;
83769;SDS011;73763;48.936;9.300;2024-03-02T13:52:37;1.17;;;1.00;;
83769;SDS011;73763;48.936;9.300;2024-03-02T13:55:03;1.95;;;1.80;;
83769;SDS011;73763;48.936;9.300;2024-03-02T13:57:29;1.35;;;1.10;;
83769;SDS011;73763;48.936;9.300;2024-03-02T13:59:54;7.87;;;2.70;;
83769;SDS011;73763;48.936;9.300;2024-03-02T14:02:20;1.30;;;1.10;;
83769;SDS011;73763;48.936;9.300;2024-03-02T14:04:45;1.00;;;0.90;;
83769;SDS011;73763;48.936;9.300;2024-03-02T14:07:13;1.70;;;1.00;;
83769;SDS011;73763;48.936;9.300;2024-03-02T14:09:39;1.25;;;1.00;;
83769;SDS011;73763;48.936;9.300;2024-03-02T14:12:05;1.30;;;1.08;;
83769;SDS011;73763;48.936;9.300;2024-03-02T14:14:32;1.10;;;0.90;;
83769;SDS011;73763;48.936;9.300;2024-03-02T14:16:58;1.75;;;1.02;;
83769;SDS011;73763;48.936;9.300;2024-03-02T14:19:24;1.20;;;0.90;;
83769;SDS011;73763;48.936;9.300;2024-03-02T14:21:50;1.30;;;0.90;;
83769;SDS011;73763;48.936;9.300;2024-03-02T14:24:15;1.20;;;0.90;;
83769;SDS011;73763;48.936;9.300;2024-03-02T14:26:41;1.67;;;0.90;;
83769;SDS011;73763;48.936;9.300;2024-03-02T14:29:06;1.60;;;0.82;;
83769;SDS011;73763;48.936;9.300;2024-03-02T14:31:32;2.50;;;0.70;;
83769;SDS011;73763;48.936;9.300;2024-03-02T14:33:58;0.80;;;0.70;;